Ordynskoe, Russia
Current Conditions -  °F | °C
As of 11:30 AM on Thursday 27 Nov 2014 (Local Time) from UNNT Reporting Station
Light Snow Light Snow  
Wind Chill:   Ceiling: 2000
Heat Index: 16°   Visibility: 1.3mi
Dew Point: 12°   Wind: 9mph
Humidity: 86%   Direction: 290°WNW
Pressure: 29.47"   Gusts: NA
Location:  54.37°N, 81.95°E
Report Text: UNNT 270430Z 29004MPS 2100 -SN OVC020 M09/M11 Q0998 2549024016490240 NOSIG RMK QFE739/0985
Loading
Personal Weather Stations






























Interactive Weather Map New forecast layout! Learn more

10-Day Weather Forecast

Advertisements
Track Severe Weather on mobile